Home > Products > Valid Products > TAF

000
FTUS41 KBTV 011738
TAFMPV
TAF
KMPV 011738Z 0118/0218 00000KT P6SM FEW150
     FM020800 00000KT 1/2SM FG VV001
     FM021400 28006KT P6SM SKC=



000
FTUS41 KBTV 011738
TAFSLK
TAF
KSLK 011738Z 0118/0218 23006KT P6SM FEW250
     FM020000 00000KT P6SM FEW200
     FM020700 00000KT 1/2SM FG VV001
     FM021400 27005KT P6SM SKC=



000
FTUS41 KBTV 011738
TAFMPV
TAF
KMPV 011738Z 0118/0218 00000KT P6SM FEW150
     FM020800 00000KT 1/2SM FG VV001
     FM021400 28006KT P6SM SKC=



000
FTUS41 KBTV 011738
TAFSLK
TAF
KSLK 011738Z 0118/0218 23006KT P6SM FEW250
     FM020000 00000KT P6SM FEW200
     FM020700 00000KT 1/2SM FG VV001
     FM021400 27005KT P6SM SKC=



000
FTUS41 KBTV 011738
TAFMSS
TAF
KMSS 011738Z 0118/0218 23007KT P6SM FEW200=



000
FTUS41 KBTV 011738
TAFBTV
TAF
KBTV 011738Z 0118/0218 VRB05KT P6SM FEW150
     FM012300 00000KT P6SM FEW200
     FM021300 20006KT P6SM SKC=



000
FTUS41 KBTV 011738
TAFMSS
TAF
KMSS 011738Z 0118/0218 23007KT P6SM FEW200=



000
FTUS41 KBTV 011738
TAFBTV
TAF
KBTV 011738Z 0118/0218 VRB05KT P6SM FEW150
     FM012300 00000KT P6SM FEW200
     FM021300 20006KT P6SM SKC=



000
FTUS41 KBTV 011418 AAC
TAFMSS
TAF AMD
KMSS 011418Z 0114/0212 00000KT 6SM BR SCT002
      TEMPO 0114/0115 2SM BR OVC002
     FM011500 23007KT P6SM FEW200=



000
FTUS41 KBTV 011305 AAB
TAFMSS
TAF AMD
KMSS 011305Z 0113/0212 00000KT 4SM BR SCT002
      TEMPO 0113/0115 2SM BR OVC002
     FM011500 23007KT P6SM FEW200=



000
FTUS41 KBTV 011305 AAB
TAFMSS
TAF AMD
KMSS 011305Z 0113/0212 00000KT 4SM BR SCT002
      TEMPO 0113/0115 2SM BR OVC002
     FM011500 23007KT P6SM FEW200=



000
FTUS41 KBTV 011145 AAA
TAFMSS
TAF AMD
KMSS 011145Z 0112/0212 00000KT 4SM BR SCT002
     FM011400 23007KT P6SM FEW200=



000
FTUS41 KBTV 011145 AAA
TAFMSS
TAF AMD
KMSS 011145Z 0112/0212 00000KT 4SM BR SCT002
     FM011400 23007KT P6SM FEW200=



000
FTUS41 KBTV 011121
TAFBTV
TAF
KBTV 011121Z 0112/0212 00000KT 4SM BR FEW200
     FM011400 19005KT P6SM FEW150
     FM012300 00000KT P6SM FEW200=



000
FTUS41 KBTV 011121
TAFMPV
TAF
KMPV 011121Z 0112/0212 00000KT 1/4SM FG VV001
      TEMPO 0112/0114 1SM BR OVC001
     FM011400 00000KT P6SM FEW150
     FM020800 00000KT 1/2SM FG VV001=



000
FTUS41 KBTV 011121
TAFMSS
TAF
KMSS 011121Z 0112/0212 00000KT 1/4SM FG VV001
     FM011400 23007KT P6SM FEW200=



000
FTUS41 KBTV 011121
TAFBTV
TAF
KBTV 011121Z 0112/0212 00000KT 4SM BR FEW200
     FM011400 19005KT P6SM FEW150
     FM012300 00000KT P6SM FEW200=



000
FTUS41 KBTV 011121
TAFMSS
TAF
KMSS 011121Z 0112/0212 00000KT 1/4SM FG VV001
     FM011400 23007KT P6SM FEW200=



000
FTUS41 KBTV 011121
TAFSLK
TAF
KSLK 011121Z 0112/0212 00000KT 1/4SM FG VV001
     FM011400 23006KT P6SM FEW250
     FM020000 00000KT P6SM FEW200
     FM020700 00000KT 1/2SM FG VV001=



000
FTUS41 KBTV 011121
TAFMPV
TAF
KMPV 011121Z 0112/0212 00000KT 1/4SM FG VV001
      TEMPO 0112/0114 1SM BR OVC001
     FM011400 00000KT P6SM FEW150
     FM020800 00000KT 1/2SM FG VV001=



000
FTUS41 KBTV 011121
TAFSLK
TAF
KSLK 011121Z 0112/0212 00000KT 1/4SM FG VV001
     FM011400 23006KT P6SM FEW250
     FM020000 00000KT P6SM FEW200
     FM020700 00000KT 1/2SM FG VV001=



000
FTUS41 KBTV 010532
TAFMPV
TAF
KMPV 010532Z 0106/0206 00000KT P6SM SKC
      TEMPO 0107/0109 1SM BR OVC003
     FM010900 00000KT 1/2SM FG VV001
      TEMPO 0112/0114 1SM BR OVC001
     FM011400 00000KT P6SM FEW250=



000
FTUS41 KBTV 010532
TAFSLK
TAF
KSLK 010532Z 0106/0206 00000KT 1/2SM FG VV003
     FM011200 00000KT P6SM SKC
     FM011600 23006KT P6SM FEW250
     FM020000 00000KT P6SM FEW200=



000
FTUS41 KBTV 010532
TAFBTV
TAF
KBTV 010532Z 0106/0206 00000KT P6SM SKC
      TEMPO 0106/0110 5SM BR
     FM011400 19005KT P6SM FEW250
     FM012300 00000KT P6SM FEW200=



000
FTUS41 KBTV 010532
TAFMSS
TAF
KMSS 010532Z 0106/0206 00000KT 1/2SM FG VV002
     FM011200 VRB03KT P6SM FEW250
     FM011500 23007KT P6SM FEW200=



000
FTUS41 KBTV 010302 AAB
TAFMSS
TAF AMD
KMSS 010302Z 0103/0124 29005KT P6SM FEW200
      TEMPO 0103/0106 00000KT 1SM BR VV002
     FM010800 00000KT 5SM BR SKC
     FM011200 19006KT P6SM FEW200=



000
FTUS41 KBTV 010302 AAB
TAFMSS
TAF AMD
KMSS 010302Z 0103/0124 29005KT P6SM FEW200
      TEMPO 0103/0106 00000KT 1SM BR VV002
     FM010800 00000KT 5SM BR SKC
     FM011200 19006KT P6SM FEW200=



000
FTUS41 KBTV 010257 AAA
TAFSLK
TAF AMD
KSLK 010257Z 0103/0124 00000KT 3SM BR FEW150
     FM010600 00000KT 1/2SM FG FEW140
     FM011000 00000KT 3SM BR FEW100
     FM011200 24004KT P6SM FEW200=



000
FTUS41 KBTV 010229 AAA
TAFMSS
TAF AMD
KMSS 010229Z 0102/0124 29005KT P6SM FEW200
      TEMPO 0102/0104 00000KT 1SM BR VV002
     FM010800 00000KT 5SM BR SKC
     FM011200 19006KT P6SM FEW200=



000
FTUS41 KBTV 312340
TAFSLK
TAF
KSLK 312340Z 0100/0124 29005KT P6SM SCT050
     FM010500 00000KT 5SM BR FEW150
     FM010700 00000KT 1/2SM FG FEW140
     FM011000 00000KT 3SM BR FEW100
     FM011200 24004KT P6SM FEW200=



000
FTUS41 KBTV 312340
TAFMSS
TAF
KMSS 312340Z 0100/0124 29005KT P6SM FEW200
     FM010800 00000KT 5SM BR SKC
     FM011200 19006KT P6SM FEW200=



000
FTUS41 KBTV 312340
TAFBTV
TAF
KBTV 312340Z 0100/0124 32006KT P6SM FEW100
     FM011300 VRB05KT P6SM FEW200=



000
FTUS41 KBTV 312340
TAFMPV
TAF
KMPV 312340Z 0100/0124 31005KT P6SM SCT090
     FM010600 00000KT 5SM BR FEW200
     FM010800 00000KT 1/2SM FG FEW150
     FM011200 00000KT 3SM BR FEW150
     FM011400 VRB03KT P6SM SKC=



000
FTUS41 KBTV 311720
TAFBTV
TAF
KBTV 311720Z 3118/0118 27010G18KT P6SM BKN050
     FM312300 31005KT P6SM SCT040
     FM010600 VRB03KT 3SM BR SKC
     FM011200 VRB05KT P6SM SKC=



000
FTUS41 KBTV 311720
TAFSLK
TAF
KSLK 311720Z 3118/0118 26009G18KT P6SM BKN035
     FM010000 25003KT P6SM SCT040
     FM010600 00000KT 1SM BR BKN002
     FM011300 VRB05KT P6SM SKC=



000
FTUS41 KBTV 311720
TAFMPV
TAF
KMPV 311720Z 3118/0118 27009G20KT P6SM BKN050
     FM010000 30005KT P6SM SCT040
     FM010600 VRB02KT 1SM BR BKN002
     FM011300 VRB05KT P6SM SKC=



000
FTUS41 KBTV 311720
TAFMPV
TAF
KMPV 311720Z 3118/0118 27009G20KT P6SM BKN050
     FM010000 30005KT P6SM SCT040
     FM010600 VRB02KT 1SM BR BKN002
     FM011300 VRB05KT P6SM SKC=



000
FTUS41 KBTV 311720
TAFBTV
TAF
KBTV 311720Z 3118/0118 27010G18KT P6SM BKN050
     FM312300 31005KT P6SM SCT040
     FM010600 VRB03KT 3SM BR SKC
     FM011200 VRB05KT P6SM SKC=



000
FTUS41 KBTV 311720
TAFMSS
TAF
KMSS 311720Z 3118/0118 27012G20KT P6SM BKN035
     FM312300 28005KT P6SM FEW050
     FM010600 00000KT P6SM SKC
     FM011400 23006KT P6SM SKC=



000
FTUS41 KBTV 311720
TAFSLK
TAF
KSLK 311720Z 3118/0118 26009G18KT P6SM BKN035
     FM010000 25003KT P6SM SCT040
     FM010600 00000KT 1SM BR BKN002
     FM011300 VRB05KT P6SM SKC=



000
FTUS41 KBTV 311720
TAFMSS
TAF
KMSS 311720Z 3118/0118 27012G20KT P6SM BKN035
     FM312300 28005KT P6SM FEW050
     FM010600 00000KT P6SM SKC
     FM011400 23006KT P6SM SKC=



000
FTUS41 KBTV 311559 AAB
TAFSLK
TAF AMD
KSLK 311559Z 3116/0112 24009G16KT P6SM FEW020 SCT030
     FM311800 28009G18KT P6SM SCT040
     FM010000 25003KT P6SM SCT040
     FM010600 00000KT 1SM BR BKN002=



000
FTUS41 KBTV 311550 AAA
TAFMSS
TAF AMD
KMSS 311550Z 3116/0112 25012G18KT P6SM SCT025 BKN035
     FM312300 28005KT P6SM FEW050
     FM010600 00000KT P6SM SKC=



000
FTUS41 KBTV 311549 AAA
TAFSLK
TAF AMD
KSLK 311549Z 3116/0112 24009G16KT P6SM BKN015 BKN040
     FM311800 28009G18KT P6SM SCT040
     FM010000 25003KT P6SM SCT040
     FM010600 00000KT 1SM BR BKN002=



000
FTUS41 KBTV 311130
TAFMSS
TAF
KMSS 311130Z 3112/0112 23011KT P6SM SCT030 BKN050
     FM311400 25012G18KT P6SM BKN050
     FM312300 28005KT P6SM FEW050
     FM010600 00000KT P6SM SKC=



000
FTUS41 KBTV 311130
TAFSLK
TAF
KSLK 311130Z 3112/0112 23006KT 6SM BR SCT015 BKN025
      TEMPO 3112/3113 3SM BR BKN015
     FM311400 24009G16KT P6SM BKN035
     FM311800 28009G18KT P6SM SCT040
     FM010000 25003KT P6SM SCT040
     FM010600 00000KT 1SM BR BKN002=



000
FTUS41 KBTV 311130
TAFMPV
TAF
KMPV 311130Z 3112/0112 VRB02KT 5SM BR SCT050
      TEMPO 3112/3113 1SM BR BKN001
     FM311300 26008G14KT P6SM SCT025 BKN040
     FM311700 29010G18KT P6SM SCT040
     FM010000 30005KT P6SM SCT040
     FM010600 VRB02KT 1SM BR BKN002=



000
FTUS41 KBTV 311130
TAFBTV
TAF
KBTV 311130Z 3112/0112 19008KT P6SM SCT060
     FM311400 21010G17KT P6SM BKN050
     FM311800 28010G18KT P6SM SCT040
     FM312300 31005KT P6SM SCT040
     FM010600 VRB03KT P6SM SKC=



000
FTUS41 KBTV 311046 AAC
TAFMPV
TAF AMD
KMPV 311046Z 3111/0106 VRB02KT 5SM BR SCT050
      TEMPO 3111/3113 1SM BR BKN001
     FM311300 26007G14KT P6SM SCT025 BKN040
     FM311700 29010G18KT P6SM SCT040
     FM010000 30005KT P6SM SCT040=



000
FTUS41 KBTV 310952 AAA
TAFMSS
TAF AMD
KMSS 310952Z 3110/0106 22008KT P6SM BKN025
      TEMPO 3110/3113 SCT025 BKN060
     FM311300 25011G18KT P6SM SCT050
     FM010000 28005KT P6SM SKC=



000
FTUS41 KBTV 310949 AAB
TAFSLK
TAF AMD
KSLK 310949Z 3110/0106 22003KT 5SM BR SCT025 BKN040
      TEMPO 3110/3112 2SM BR SCT002
     FM311200 24008KT P6SM BKN035
     FM311800 28009G17KT P6SM SCT040
     FM010000 25003KT P6SM SCT040=



000
FTUS41 KBTV 310949 AAB
TAFSLK
TAF AMD
KSLK 310949Z 3110/0106 22003KT 5SM BR SCT025 BKN040
      TEMPO 3110/3112 2SM BR SCT002
     FM311200 24008KT P6SM BKN035
     FM311800 28009G17KT P6SM SCT040
     FM010000 25003KT P6SM SCT040=



000
FTUS41 KBTV 310947 AAB
TAFMPV
TAF AMD
KMPV 310947Z 3110/0106 00000KT 6SM BR SCT050
      TEMPO 3110/3111 2SM BR SCT001 SCT050
     FM311100 00000KT 1/2SM FG OVC001
     FM311300 26007G14KT P6SM SCT025 BKN040
     FM311700 29010G18KT P6SM SCT040
     FM010000 30005KT P6SM SCT040=



000
FTUS41 KBTV 310828 AAA
TAFSLK
TAF AMD
KSLK 310828Z 3108/0106 VRB02KT 5SM BR BKN040
      TEMPO 3108/3110 1SM BR SCT002
     FM311000 00000KT 3/4SM BR BKN002
     FM311230 24008KT P6SM BKN035
     FM311800 28009G17KT P6SM SCT040
     FM010000 25003KT P6SM SCT040=



000
FTUS41 KBTV 310827 AAA
TAFMPV
TAF AMD
KMPV 310827Z 3108/0106 VRB03KT P6SM BKN050
      TEMPO 3108/3109 2SM BR SCT002 SCT050
     FM310900 00000KT 1/2SM FG OVC001
     FM311300 26007G14KT P6SM SCT025 BKN040
     FM311700 29010G18KT P6SM SCT040
     FM010000 30005KT P6SM SCT040=



000
FTUS41 KBTV 310524
TAFSLK
TAF
KSLK 310524Z 3106/0106 VRB02KT 3SM BR SKC
      TEMPO 3106/3108 3/4SM BR SCT002
     FM310800 00000KT 3/4SM BR BKN002
     FM311230 24008KT P6SM BKN035
     FM311800 28009G17KT P6SM SCT040
     FM010000 25003KT P6SM SCT040=



000
FTUS41 KBTV 310524
TAFMPV
TAF
KMPV 310524Z 3106/0106 VRB03KT P6SM SCT060
      TEMPO 3106/3108 3SM BR SCT005
     FM310800 00000KT 1/2SM FG OVC001
     FM311300 26007G14KT P6SM SCT025 BKN040
     FM311700 29010G18KT P6SM SCT040
     FM010000 30005KT P6SM SCT040=



000
FTUS41 KBTV 310524
TAFMSS
TAF
KMSS 310524Z 3106/0106 22005KT P6SM SCT070
     FM311300 25011G18KT P6SM SCT050
     FM010000 28005KT P6SM SKC=



000
FTUS41 KBTV 310524
TAFMSS
TAF
KMSS 310524Z 3106/0106 22005KT P6SM SCT070
     FM311300 25011G18KT P6SM SCT050
     FM010000 28005KT P6SM SKC=



000
FTUS41 KBTV 310524
TAFSLK
TAF
KSLK 310524Z 3106/0106 VRB02KT 3SM BR SKC
      TEMPO 3106/3108 3/4SM BR SCT002
     FM310800 00000KT 3/4SM BR BKN002
     FM311230 24008KT P6SM BKN035
     FM311800 28009G17KT P6SM SCT040
     FM010000 25003KT P6SM SCT040=



000
FTUS41 KBTV 310524
TAFBTV
TAF
KBTV 310524Z 3106/0106 18004KT P6SM SCT060
     FM311200 21009G17KT P6SM SCT040
     FM311800 28010G18KT P6SM SCT040
     FM312300 31005KT P6SM SCT040=



000
FTUS41 KBTV 310524
TAFMPV
TAF
KMPV 310524Z 3106/0106 VRB03KT P6SM SCT060
      TEMPO 3106/3108 3SM BR SCT005
     FM310800 00000KT 1/2SM FG OVC001
     FM311300 26007G14KT P6SM SCT025 BKN040
     FM311700 29010G18KT P6SM SCT040
     FM010000 30005KT P6SM SCT040=



000
FTUS41 KBTV 310423 AAA
TAFSLK
TAF AMD
KSLK 310423Z 3104/3124 00000KT 3SM BR SKC
      TEMPO 3104/3108 3/4SM BR SCT002
     FM310800 00000KT 1/2SM FG BKN002
     FM311230 24008KT P6SM SCT040
     FM311800 28009G17KT P6SM SCT040=



000
FTUS41 KBTV 302322
TAFBTV
TAF
KBTV 302322Z 3100/3124 18004KT P6SM SCT060
      TEMPO 3100/3103 BKN060
     FM311200 21009G17KT P6SM SCT040
     FM311800 28010G18KT P6SM SCT040=



000
FTUS41 KBTV 302322
TAFSLK
TAF
KSLK 302322Z 3100/3124 VRB03KT P6SM BKN060
     FM310600 00000KT 3SM BR SCT060
     FM310800 00000KT 1/2SM FG BKN002
     FM311230 24008KT P6SM SCT040
     FM311800 28009G17KT P6SM SCT040=



000
FTUS41 KBTV 302322
TAFMPV
TAF
KMPV 302322Z 3100/3124 VRB03KT P6SM SCT060
      TEMPO 3100/3104 BKN060
     FM310600 00000KT 3SM BR SCT010
     FM310800 00000KT 1/2SM FG OVC001
     FM311300 26007KT P6SM SCT040
     FM311800 29010G18KT P6SM SCT040=



000
FTUS41 KBTV 302322
TAFMSS
TAF
KMSS 302322Z 3100/3124 22005KT P6SM SCT070
     FM311300 26010G17KT P6SM SCT050=



000
FTUS41 KBTV 302322
TAFSLK
TAF
KSLK 302322Z 3100/3124 VRB03KT P6SM BKN060
     FM310600 00000KT 3SM BR SCT060
     FM310800 00000KT 1/2SM FG BKN002
     FM311230 24008KT P6SM SCT040
     FM311800 28009G17KT P6SM SCT040=



000
FTUS41 KBTV 302322
TAFBTV
TAF
KBTV 302322Z 3100/3124 18004KT P6SM SCT060
      TEMPO 3100/3103 BKN060
     FM311200 21009G17KT P6SM SCT040
     FM311800 28010G18KT P6SM SCT040=



000
FTUS41 KBTV 302322
TAFMSS
TAF
KMSS 302322Z 3100/3124 22005KT P6SM SCT070
     FM311300 26010G17KT P6SM SCT050=



000
FTUS41 KBTV 302322
TAFMPV
TAF
KMPV 302322Z 3100/3124 VRB03KT P6SM SCT060
      TEMPO 3100/3104 BKN060
     FM310600 00000KT 3SM BR SCT010
     FM310800 00000KT 1/2SM FG OVC001
     FM311300 26007KT P6SM SCT040
     FM311800 29010G18KT P6SM SCT040=



000
FTUS41 KBTV 301825 RRA
TAFSLK
TAF
KSLK 301825Z 3018/3118 24007KT P6SM BKN120
     FM310000 VRB03KT P6SM SCT080=



000
FTUS41 KBTV 301825 RRA
TAFMSS
TAF
KMSS 301825Z 3018/3118 24009KT P6SM SCT045
     FM310000 22005KT P6SM SCT090=



000
FTUS41 KBTV 301825 RRA
TAFMSS
TAF
KMSS 301825Z 3018/3118 24009KT P6SM SCT045
     FM310000 22005KT P6SM SCT090=



000
FTUS41 KBTV 301825 RRA
TAFSLK
TAF
KSLK 301825Z 3018/3118 24007KT P6SM BKN120
     FM310000 VRB03KT P6SM SCT080=



000
FTUS41 KBTV 301825 RRA
TAFBTV
TAF
KBTV 301825Z 3018/3118 21008KT P6SM BKN100
     FM310000 18004KT P6SM SCT100=



000
FTUS41 KBTV 301825 RRA
TAFMPV
TAF
KMPV 301825Z 3018/3118 30006KT P6SM BKN120
     FM310000 VRB03KT P6SM SCT100=



000
FTUS41 KBTV 301825 RRA
TAFBTV
TAF
KBTV 301825Z 3018/3118 21008KT P6SM BKN100
     FM310000 18004KT P6SM SCT100=



000
FTUS41 KBTV 301825 RRA
TAFMPV
TAF
KMPV 301825Z 3018/3118 30006KT P6SM BKN120
     FM310000 VRB03KT P6SM SCT100=



000
FTUS41 KBTV 301139
TAFSLK
TAF
KSLK 301139Z 3012/3112 22004KT P6SM OVC120
     FM301400 24007KT P6SM BKN120
     FM310000 VRB03KT P6SM SCT080=



000
FTUS41 KBTV 301139
TAFBTV
TAF
KBTV 301139Z 3012/3112 VRB03KT P6SM SCT090 BKN140
     FM301400 21008KT P6SM BKN100
     FM310000 18004KT P6SM SCT100=



000
FTUS41 KBTV 301139
TAFMSS
TAF
KMSS 301139Z 3012/3112 23005KT P6SM BKN045
      TEMPO 3012/3015 SCT045
     FM301500 24009KT P6SM SCT045
     FM310000 22005KT P6SM SCT090=



000
FTUS41 KBTV 301139
TAFMPV
TAF
KMPV 301139Z 3012/3112 00000KT P6SM OVC120
     FM301400 30006KT P6SM BKN120
     FM310000 VRB03KT P6SM SCT100=



000
FTUS41 KBTV 301101 AAA
TAFMSS
TAF AMD
KMSS 301101Z 3011/3106 22005KT 5SM BR BKN045
      TEMPO 3011/3014 6SM BR SCT045
     FM301400 24009KT P6SM SCT045
     FM310000 22005KT P6SM BKN090=



000
FTUS41 KBTV 301101 AAA
TAFMSS
TAF AMD
KMSS 301101Z 3011/3106 22005KT 5SM BR BKN045
      TEMPO 3011/3014 6SM BR SCT045
     FM301400 24009KT P6SM SCT045
     FM310000 22005KT P6SM BKN090=



000
FTUS41 KBTV 300533
TAFSLK
TAF
KSLK 300533Z 3006/3106 00000KT P6SM OVC150
     FM301400 24007KT P6SM BKN120
     FM310000 VRB03KT P6SM BKN080=



000
FTUS41 KBTV 300533
TAFMPV
TAF
KMPV 300533Z 3006/3106 00000KT P6SM OVC150
     FM301400 30006KT P6SM BKN100
     FM310000 VRB03KT P6SM BKN100=



000
FTUS41 KBTV 300533
TAFMSS
TAF
KMSS 300533Z 3006/3106 22005KT P6SM OVC150
     FM301500 24009KT P6SM BKN120
     FM310000 22005KT P6SM BKN090=



000
FTUS41 KBTV 300533
TAFBTV
TAF
KBTV 300533Z 3006/3106 VRB03KT P6SM OVC150
     FM301400 21008KT P6SM BKN100
     FM310000 18004KT P6SM BKN100=



000
FTUS41 KBTV 300533
TAFMPV
TAF
KMPV 300533Z 3006/3106 00000KT P6SM OVC150
     FM301400 30006KT P6SM BKN100
     FM310000 VRB03KT P6SM BKN100=



000
FTUS41 KBTV 300533
TAFSLK
TAF
KSLK 300533Z 3006/3106 00000KT P6SM OVC150
     FM301400 24007KT P6SM BKN120
     FM310000 VRB03KT P6SM BKN080=



000
FTUS41 KBTV 300533
TAFMSS
TAF
KMSS 300533Z 3006/3106 22005KT P6SM OVC150
     FM301500 24009KT P6SM BKN120
     FM310000 22005KT P6SM BKN090=



000
FTUS41 KBTV 300533
TAFBTV
TAF
KBTV 300533Z 3006/3106 VRB03KT P6SM OVC150
     FM301400 21008KT P6SM BKN100
     FM310000 18004KT P6SM BKN100=



000
FTUS41 KBTV 292328
TAFBTV
TAF
KBTV 292328Z 3000/3024 VRB03KT P6SM FEW090 BKN100
     FM301400 27004KT P6SM SCT040=



000
FTUS41 KBTV 292328
TAFSLK
TAF
KSLK 292328Z 3000/3024 00000KT P6SM BKN070 OVC100
     FM301400 27005KT P6SM SCT040=



000
FTUS41 KBTV 292328
TAFMSS
TAF
KMSS 292328Z 3000/3024 23005KT P6SM BKN100 OVC150
     FM301500 24006KT P6SM SCT050=



000
FTUS41 KBTV 292328
TAFMPV
TAF
KMPV 292328Z 3000/3024 VRB03KT P6SM BKN150
     FM301400 28006KT P6SM SCT040=



    US Dept of Commerce
    National Oceanic and Atmospheric Administration
    National Weather Service
    1325 East West Highway
    Silver Spring, MD 20910
    Page Author: NWS Internet Services Team
Disclaimer
Information Quality
Credits
Glossary
Privacy Policy
Freedom of Information Act (FOIA)
About Us
Career Opportunities